Time;durP1;ratioP1;P1;durP2;ratioP2;P2;SDS_P1;SDS_P2;PMS_P1;PMS_P2;Temp;Humidity;BMP_temperature;BMP_pressure;BME280_temperature;BME280_humidity;BME280_pressure;Samples;Min_cycle;Max_cycle;Signal;HPM_P1;HPM_P2
2023/04/26 00:00:44;;;;;;;16.87;11.57;;;5.70;99.90;;;;;;4997261;28;20042;-84
2023/04/26 00:03:12;;;;;;;19.53;11.90;;;5.70;99.90;;;;;;4994836;28;20021;-87
2023/04/26 00:05:37;;;;;;;20.33;11.77;;;5.70;99.90;;;;;;4996078;28;20056;-85
2023/04/26 00:08:03;;;;;;;17.07;11.87;;;5.70;99.90;;;;;;4997569;28;20022;-84
2023/04/26 00:10:29;;;;;;;17.20;11.83;;;5.70;99.90;;;;;;4997146;28;20064;-86
2023/04/26 00:12:54;;;;;;;19.30;12.43;;;5.70;99.90;;;;;;4994536;28;20097;-84
2023/04/26 00:15:20;;;;;;;22.40;12.47;;;5.70;99.90;;;;;;4995260;28;20030;-86
2023/04/26 00:17:46;;;;;;;17.33;11.90;;;5.70;99.90;;;;;;4997272;28;20133;-86
2023/04/26 00:20:12;;;;;;;17.50;11.23;;;5.70;99.90;;;;;;4995685;28;20146;-88
2023/04/26 00:22:38;;;;;;;17.83;11.23;;;5.70;99.90;;;;;;4994102;28;20108;-89
2023/04/26 00:25:04;;;;;;;19.17;12.00;;;5.80;99.90;;;;;;4998685;28;20027;-89
2023/04/26 00:27:30;;;;;;;17.10;11.70;;;5.70;99.90;;;;;;4999934;28;20518;-85
2023/04/26 00:29:56;;;;;;;20.07;12.53;;;5.70;99.90;;;;;;4990897;28;20088;-84
2023/04/26 00:32:21;;;;;;;18.50;11.87;;;5.70;99.90;;;;;;4990842;28;20120;-87
2023/04/26 00:34:47;;;;;;;19.83;12.03;;;5.70;99.90;;;;;;4990892;28;20022;-87
2023/04/26 00:37:13;;;;;;;17.47;11.43;;;5.70;99.90;;;;;;4991288;28;20094;-85
2023/04/26 00:39:38;;;;;;;19.80;11.97;;;5.70;99.90;;;;;;4990450;28;20058;-85
2023/04/26 00:42:04;;;;;;;16.87;11.60;;;5.60;99.90;;;;;;4997298;28;20029;-87
2023/04/26 00:44:29;;;;;;;17.53;12.10;;;5.70;99.90;;;;;;4996170;28;20050;-85
2023/04/26 00:46:55;;;;;;;17.77;11.87;;;5.70;99.90;;;;;;4995836;28;20046;-86
2023/04/26 00:49:23;;;;;;;20.57;13.40;;;5.60;99.90;;;;;;4995009;28;20053;-87
2023/04/26 00:51:51;;;;;;;19.50;12.37;;;5.60;99.90;;;;;;4995016;28;20498;-85
2023/04/26 00:54:18;;;;;;;17.83;12.23;;;5.70;99.90;;;;;;4996319;28;20104;-90
2023/04/26 00:56:44;;;;;;;17.73;11.37;;;5.70;99.90;;;;;;4994653;28;20121;-88
2023/04/26 00:59:10;;;;;;;15.63;10.00;;;5.60;99.90;;;;;;4995219;28;20035;-87
2023/04/26 01:01:36;;;;;;;18.70;10.43;;;5.60;99.90;;;;;;4996387;28;20505;-84
2023/04/26 01:04:02;;;;;;;17.17;10.13;;;5.60;99.90;;;;;;4996569;28;20123;-87
2023/04/26 01:06:32;;;;;;;14.43;10.53;;;5.60;99.90;;;;;;4996618;28;20922;-86
2023/04/26 01:09:03;;;;;;;17.03;9.90;;;5.50;99.90;;;;;;4994890;28;20022;-85
2023/04/26 01:11:29;;;;;;;14.50;9.70;;;5.50;99.90;;;;;;4995113;28;20102;-84
2023/04/26 01:13:56;;;;;;;15.93;9.73;;;5.40;99.90;;;;;;4996294;28;20093;-87
2023/04/26 01:16:22;;;;;;;14.27;10.13;;;5.40;99.90;;;;;;4997923;28;20084;-86
2023/04/26 01:18:51;;;;;;;18.53;11.40;;;5.40;99.90;;;;;;4995853;28;20061;-84
2023/04/26 01:21:21;;;;;;;18.53;10.80;;;5.40;99.90;;;;;;4997607;28;20151;-86
2023/04/26 01:23:48;;;;;;;18.40;10.97;;;5.40;99.90;;;;;;4997516;28;20026;-89
2023/04/26 01:26:14;;;;;;;18.07;11.67;;;5.40;99.90;;;;;;4995486;28;20600;-84
2023/04/26 01:28:40;;;;;;;19.20;11.70;;;5.40;99.90;;;;;;4995110;28;20029;-87
2023/04/26 01:31:06;;;;;;;21.63;12.00;;;5.40;99.90;;;;;;4995184;28;20026;-86
2023/04/26 01:33:31;;;;;;;21.10;11.83;;;5.50;99.90;;;;;;4994388;28;20037;-86
2023/04/26 01:35:57;;;;;;;19.40;12.40;;;5.40;99.90;;;;;;4995969;28;20025;-85
2023/04/26 01:38:22;;;;;;;17.87;12.20;;;5.40;99.90;;;;;;4996344;28;20133;-83
2023/04/26 01:40:48;;;;;;;20.67;11.80;;;5.40;99.90;;;;;;4995818;28;20096;-90
2023/04/26 01:43:14;;;;;;;16.90;11.07;;;5.40;99.90;;;;;;4998498;28;20121;-85
2023/04/26 01:45:40;;;;;;;14.57;10.23;;;5.30;99.90;;;;;;4996799;28;20566;-84
2023/04/26 01:48:06;;;;;;;13.97;9.03;;;5.30;99.90;;;;;;4994868;28;20108;-89
2023/04/26 01:50:32;;;;;;;13.47;9.10;;;5.30;99.90;;;;;;4993759;28;20030;-85
2023/04/26 01:52:57;;;;;;;12.93;8.77;;;5.30;99.90;;;;;;4995180;28;20030;-87
2023/04/26 01:55:23;;;;;;;11.87;8.20;;;5.30;99.90;;;;;;4994745;28;20046;-85
2023/04/26 01:57:48;;;;;;;10.13;7.67;;;5.30;99.90;;;;;;4994481;28;20113;-86
2023/04/26 02:00:14;;;;;;;12.57;7.93;;;5.30;99.90;;;;;;4994584;28;20025;-88
2023/04/26 02:02:39;;;;;;;10.67;7.47;;;5.20;99.90;;;;;;4998752;28;21379;-85
2023/04/26 02:05:05;;;;;;;11.33;7.63;;;5.20;99.90;;;;;;4997305;28;20034;-86
2023/04/26 02:07:31;;;;;;;11.10;7.30;;;5.20;99.90;;;;;;4996121;28;20121;-87
2023/04/26 02:09:56;;;;;;;11.93;7.13;;;5.10;99.90;;;;;;4996284;28;20038;-89
2023/04/26 02:12:22;;;;;;;9.90;7.80;;;5.10;99.90;;;;;;4995382;28;20120;-84
2023/04/26 02:14:47;;;;;;;10.63;7.40;;;5.10;99.90;;;;;;4996540;28;20030;-88
2023/04/26 02:17:13;;;;;;;10.07;7.20;;;5.10;99.90;;;;;;4998500;28;20795;-89
2023/04/26 02:19:39;;;;;;;11.53;7.73;;;5.00;99.90;;;;;;4999514;28;20768;-84
2023/04/26 02:22:05;;;;;;;11.23;7.10;;;5.00;99.90;;;;;;5000791;28;20034;-86
2023/04/26 02:24:30;;;;;;;12.77;7.77;;;5.00;99.90;;;;;;4999930;28;20157;-84
2023/04/26 02:26:59;;;;;;;12.87;7.50;;;5.00;99.90;;;;;;4999396;28;20120;-88
2023/04/26 02:29:25;;;;;;;12.60;8.07;;;4.90;99.90;;;;;;5000282;28;20018;-84
2023/04/26 02:31:50;;;;;;;14.70;8.53;;;5.00;99.90;;;;;;4997729;28;20042;-86
2023/04/26 02:34:16;;;;;;;13.23;8.50;;;4.90;99.90;;;;;;4999970;28;20034;-86
2023/04/26 02:36:42;;;;;;;11.67;7.87;;;4.90;99.90;;;;;;4999193;28;20022;-85
2023/04/26 02:39:07;;;;;;;12.00;8.80;;;4.90;99.90;;;;;;4998542;28;20029;-89
2023/04/26 02:41:33;;;;;;;12.70;9.10;;;4.90;99.90;;;;;;4999770;28;20040;-91
2023/04/26 02:43:59;;;;;;;15.00;8.50;;;4.90;99.90;;;;;;5002180;28;20038;-84
2023/04/26 02:46:24;;;;;;;14.37;9.00;;;4.80;99.90;;;;;;5001231;28;20034;-87
2023/04/26 02:48:50;;;;;;;14.67;8.87;;;4.80;99.90;;;;;;5000137;28;20026;-87
2023/04/26 02:51:16;;;;;;;13.13;8.57;;;4.80;99.90;;;;;;4997720;28;20057;-90
2023/04/26 02:53:41;;;;;;;14.13;9.10;;;4.90;99.90;;;;;;4998803;28;20105;-85
2023/04/26 02:56:07;;;;;;;12.70;8.37;;;4.90;99.90;;;;;;4997386;28;20033;-87
2023/04/26 02:58:32;;;;;;;13.90;9.00;;;4.90;99.90;;;;;;4997807;28;20655;-90
2023/04/26 03:00:58;;;;;;;13.60;8.27;;;4.90;99.90;;;;;;4998387;28;20038;-85
2023/04/26 03:03:24;;;;;;;13.83;8.90;;;5.00;99.90;;;;;;4997391;28;20030;-87
2023/04/26 03:05:50;;;;;;;13.90;8.80;;;5.00;99.90;;;;;;4997600;28;20030;-84
2023/04/26 03:08:15;;;;;;;14.93;8.97;;;5.00;99.90;;;;;;4997726;28;20076;-87
2023/04/26 03:10:43;;;;;;;16.87;9.87;;;5.00;99.90;;;;;;4996610;28;20023;-86
2023/04/26 03:13:08;;;;;;;20.90;9.57;;;5.00;99.90;;;;;;4996709;28;20053;-85
2023/04/26 03:15:34;;;;;;;14.27;9.47;;;5.00;99.90;;;;;;4996319;28;20612;-89
2023/04/26 03:17:59;;;;;;;14.43;9.20;;;5.00;99.90;;;;;;4994667;28;20632;-86
2023/04/26 03:20:25;;;;;;;13.67;9.00;;;5.00;99.90;;;;;;4995733;28;20046;-88
2023/04/26 03:22:50;;;;;;;11.90;8.60;;;5.00;99.90;;;;;;4996571;28;20034;-88
2023/04/26 03:25:16;;;;;;;16.80;8.93;;;5.00;99.90;;;;;;4998308;28;20030;-86
2023/04/26 03:27:42;;;;;;;12.90;8.30;;;4.90;99.90;;;;;;4996393;28;20390;-87
2023/04/26 03:30:08;;;;;;;16.17;9.27;;;4.90;99.90;;;;;;4995188;28;20046;-86
2023/04/26 03:32:33;;;;;;;13.33;8.63;;;4.90;99.90;;;;;;4996753;28;20041;-87
2023/04/26 03:34:59;;;;;;;13.97;8.50;;;4.90;99.90;;;;;;4996669;28;20161;-84
2023/04/26 03:37:25;;;;;;;15.00;8.87;;;5.00;99.90;;;;;;4997611;28;20037;-85
2023/04/26 03:39:52;;;;;;;14.33;8.63;;;4.90;99.90;;;;;;4996110;28;20109;-88
2023/04/26 03:42:19;;;;;;;14.40;9.30;;;4.90;99.90;;;;;;4999982;28;20102;-85
2023/04/26 03:44:44;;;;;;;14.37;8.43;;;4.90;99.90;;;;;;4996356;28;20140;-86
2023/04/26 03:47:10;;;;;;;14.43;8.33;;;4.90;99.90;;;;;;4997073;28;20470;-86
2023/04/26 03:49:35;;;;;;;13.73;9.30;;;4.90;99.90;;;;;;4995465;28;20031;-85
2023/04/26 03:52:01;;;;;;;14.87;9.37;;;4.90;99.90;;;;;;4995714;28;20112;-87
2023/04/26 03:54:26;;;;;;;14.57;9.23;;;4.90;99.90;;;;;;4997173;28;20030;-86
2023/04/26 03:56:52;;;;;;;13.63;9.20;;;4.90;99.90;;;;;;4997741;28;20174;-87
2023/04/26 03:59:17;;;;;;;14.87;8.80;;;4.90;99.90;;;;;;4998110;28;20058;-87
2023/04/26 04:01:43;;;;;;;13.77;8.73;;;4.90;99.90;;;;;;4995942;28;20022;-86
2023/04/26 04:04:09;;;;;;;12.40;8.73;;;4.90;99.90;;;;;;4995920;28;20082;-85
2023/04/26 04:06:34;;;;;;;17.83;9.53;;;4.80;99.90;;;;;;4997961;28;20034;-86
2023/04/26 04:09:00;;;;;;;13.10;9.40;;;4.80;99.90;;;;;;4992863;28;20482;-91
2023/04/26 04:11:25;;;;;;;13.97;10.00;;;4.80;99.90;;;;;;4996649;28;20411;-84
2023/04/26 04:13:51;;;;;;;15.97;9.87;;;4.80;99.90;;;;;;4990599;28;20069;-85
2023/04/26 04:16:16;;;;;;;15.97;9.43;;;4.80;99.90;;;;;;4991293;28;20153;-87
2023/04/26 04:18:42;;;;;;;15.23;9.63;;;4.70;99.90;;;;;;4990283;28;20077;-85
2023/04/26 04:21:08;;;;;;;19.83;9.90;;;4.70;99.90;;;;;;4988696;28;20046;-86
2023/04/26 04:23:33;;;;;;;14.53;9.30;;;4.70;99.90;;;;;;4993493;28;20068;-88
2023/04/26 04:25:59;;;;;;;14.43;8.97;;;4.70;99.90;;;;;;4996187;28;20022;-85
2023/04/26 04:28:24;;;;;;;14.73;8.77;;;4.70;99.90;;;;;;4996069;28;20045;-85
2023/04/26 04:30:50;;;;;;;15.13;9.17;;;4.70;99.90;;;;;;4994426;28;20188;-88
2023/04/26 04:33:16;;;;;;;15.87;9.83;;;4.70;99.90;;;;;;4997355;28;20045;-86
2023/04/26 04:35:42;;;;;;;14.90;9.93;;;4.70;99.90;;;;;;4995804;28;20066;-86
2023/04/26 04:38:07;;;;;;;14.90;10.03;;;4.80;99.90;;;;;;4995221;28;20056;-87
2023/04/26 04:40:33;;;;;;;14.67;9.53;;;4.70;99.90;;;;;;4993624;28;20045;-85
2023/04/26 04:42:59;;;;;;;14.80;9.37;;;4.70;99.90;;;;;;4995253;28;20064;-89
2023/04/26 04:45:25;;;;;;;17.17;10.17;;;4.70;99.90;;;;;;4994893;28;20140;-90
2023/04/26 04:47:52;;;;;;;16.53;9.60;;;4.70;99.90;;;;;;4994131;28;20045;-88
2023/04/26 04:50:18;;;;;;;15.13;9.97;;;4.70;99.90;;;;;;4991058;28;20041;-87
2023/04/26 04:52:44;;;;;;;21.00;10.97;;;4.70;99.90;;;;;;4991823;28;20042;-88
2023/04/26 04:55:10;;;;;;;14.53;9.47;;;4.70;99.90;;;;;;4988103;28;20081;-87
2023/04/26 04:57:35;;;;;;;17.70;10.30;;;4.70;99.90;;;;;;4989350;28;20769;-87
2023/04/26 05:00:08;;;;;;;16.73;10.10;;;4.70;99.90;;;;;;4990532;28;20025;-85
2023/04/26 05:02:35;;;;;;;16.90;10.80;;;4.70;99.90;;;;;;4993365;28;20034;-87
2023/04/26 05:05:01;;;;;;;19.60;10.50;;;4.70;99.90;;;;;;4992102;28;20026;-86
2023/04/26 05:07:27;;;;;;;17.17;10.17;;;4.80;99.90;;;;;;4992501;28;20383;-88
2023/04/26 05:09:52;;;;;;;13.90;9.07;;;4.80;99.90;;;;;;4990424;28;20033;-85
2023/04/26 05:12:18;;;;;;;15.40;10.30;;;4.80;99.90;;;;;;4992192;28;20049;-86
2023/04/26 05:14:43;;;;;;;14.33;10.10;;;4.80;99.90;;;;;;4992196;28;20029;-85
2023/04/26 05:17:09;;;;;;;20.07;10.73;;;4.90;99.90;;;;;;4993011;28;20045;-83
2023/04/26 05:19:35;;;;;;;15.07;10.33;;;4.90;99.90;;;;;;4993438;28;20038;-84
2023/04/26 05:22:01;;;;;;;13.67;9.80;;;4.90;99.90;;;;;;4993477;28;20042;-83
2023/04/26 05:24:30;;;;;;;15.57;11.43;;;4.90;99.90;;;;;;4985454;28;20367;-86
2023/04/26 05:26:57;;;;;;;17.10;10.57;;;5.00;99.90;;;;;;4989749;28;20050;-84
2023/04/26 05:29:23;;;;;;;19.07;11.40;;;5.00;99.90;;;;;;4988904;28;20031;-84
2023/04/26 05:31:49;;;;;;;16.47;11.33;;;5.00;99.90;;;;;;4992138;28;20080;-87
2023/04/26 05:34:14;;;;;;;16.73;11.07;;;5.00;99.90;;;;;;4989523;28;20570;-90
2023/04/26 05:36:40;;;;;;;15.93;10.30;;;5.10;99.90;;;;;;4990890;28;20029;-84
2023/04/26 05:39:06;;;;;;;19.27;11.40;;;5.10;99.90;;;;;;4988517;28;20121;-84
2023/04/26 05:41:32;;;;;;;20.90;12.10;;;5.10;99.90;;;;;;4988548;28;20035;-88
2023/04/26 05:43:58;;;;;;;21.43;12.07;;;5.20;99.90;;;;;;4987450;28;20044;-88
2023/04/26 05:46:23;;;;;;;18.13;11.63;;;5.30;99.90;;;;;;4989117;28;20041;-86
2023/04/26 05:48:49;;;;;;;20.57;11.87;;;5.30;99.90;;;;;;4989263;28;21353;-85
2023/04/26 05:51:15;;;;;;;18.07;11.07;;;5.40;99.90;;;;;;4991227;28;20075;-87
2023/04/26 05:53:40;;;;;;;19.23;11.73;;;5.50;99.90;;;;;;4995287;28;20074;-86
2023/04/26 05:56:06;;;;;;;19.60;12.00;;;5.50;99.90;;;;;;4995258;28;21590;-90
2023/04/26 05:58:32;;;;;;;17.30;11.40;;;5.60;99.90;;;;;;4993837;28;20045;-85
2023/04/26 06:00:58;;;;;;;19.90;11.67;;;5.70;99.90;;;;;;4992494;28;20118;-85
2023/04/26 06:03:23;;;;;;;18.77;12.43;;;5.80;99.90;;;;;;4994104;28;20120;-88
2023/04/26 06:05:49;;;;;;;16.70;10.33;;;5.90;99.90;;;;;;4995513;28;20041;-86
2023/04/26 06:08:15;;;;;;;16.83;10.27;;;6.00;99.90;;;;;;4994822;28;20033;-88
2023/04/26 06:10:40;;;;;;;17.57;10.10;;;6.00;99.90;;;;;;4993632;28;20037;-84
2023/04/26 06:13:06;;;;;;;16.77;10.77;;;6.00;99.90;;;;;;4996303;28;20386;-88
2023/04/26 06:15:32;;;;;;;15.90;9.73;;;6.10;99.90;;;;;;4997209;28;20022;-87
2023/04/26 06:17:58;;;;;;;15.50;9.77;;;6.10;99.90;;;;;;4996405;28;20060;-87
2023/04/26 06:20:24;;;;;;;16.47;10.23;;;6.10;99.90;;;;;;4995767;28;20483;-84
2023/04/26 06:22:49;;;;;;;14.20;9.87;;;6.10;99.90;;;;;;4996114;28;20049;-86
2023/04/26 06:25:15;;;;;;;17.17;11.03;;;6.10;99.90;;;;;;4996690;28;20022;-88
2023/04/26 06:27:41;;;;;;;15.47;10.90;;;6.20;99.90;;;;;;4999093;28;21470;-85
2023/04/26 06:30:08;;;;;;;19.73;11.30;;;6.20;99.90;;;;;;4996628;28;20030;-87
2023/04/26 06:32:34;;;;;;;17.00;10.23;;;6.20;99.90;;;;;;5002163;28;20053;-86
2023/04/26 06:34:59;;;;;;;13.27;9.90;;;6.30;99.90;;;;;;5005511;28;20050;-86
2023/04/26 06:37:25;;;;;;;17.77;9.70;;;6.40;99.90;;;;;;5003485;28;20149;-88
2023/04/26 06:39:50;;;;;;;16.10;9.33;;;6.60;99.90;;;;;;5005121;28;20084;-85
2023/04/26 06:42:16;;;;;;;14.80;9.73;;;6.70;99.90;;;;;;4995588;28;20096;-87
2023/04/26 06:44:42;;;;;;;14.77;9.37;;;6.70;99.90;;;;;;4995150;28;20783;-87
2023/04/26 06:47:08;;;;;;;11.87;8.30;;;6.80;99.90;;;;;;4994556;28;20089;-88
2023/04/26 06:49:34;;;;;;;15.10;9.00;;;6.80;99.90;;;;;;4992627;28;20036;-87
2023/04/26 06:52:00;;;;;;;14.70;8.37;;;6.90;99.90;;;;;;4993951;28;20080;-85
2023/04/26 06:54:29;;;;;;;12.70;8.43;;;6.90;99.90;;;;;;4996278;28;20030;-87
2023/04/26 06:56:55;;;;;;;12.30;8.23;;;6.90;99.90;;;;;;4997520;28;20027;-87
2023/04/26 06:59:21;;;;;;;12.47;8.57;;;7.00;99.90;;;;;;5000497;28;20940;-86
2023/04/26 07:01:47;;;;;;;16.57;8.50;;;7.10;99.90;;;;;;4996980;28;20037;-85
2023/04/26 07:04:13;;;;;;;15.73;8.23;;;7.20;99.90;;;;;;4992177;28;20498;-85
2023/04/26 07:06:39;;;;;;;12.63;7.60;;;7.30;99.90;;;;;;4991362;28;21081;-85
2023/04/26 07:09:05;;;;;;;11.37;7.50;;;7.30;99.90;;;;;;4984710;28;20034;-87
2023/04/26 07:11:30;;;;;;;13.10;7.70;;;7.30;99.90;;;;;;4989473;28;20045;-87
2023/04/26 07:13:56;;;;;;;13.80;8.07;;;7.40;99.90;;;;;;4990261;28;20494;-92
2023/04/26 07:16:22;;;;;;;14.30;7.70;;;7.40;99.90;;;;;;4990378;28;20113;-85
2023/04/26 07:18:48;;;;;;;21.20;9.00;;;7.50;99.90;;;;;;4990037;28;20124;-87
2023/04/26 07:21:14;;;;;;;13.27;8.00;;;7.60;99.90;;;;;;4989867;28;20026;-85
2023/04/26 07:23:40;;;;;;;11.70;7.90;;;7.90;99.90;;;;;;4990277;28;20030;-84
2023/04/26 07:26:06;;;;;;;14.93;8.20;;;7.90;99.90;;;;;;4992628;28;20050;-85
2023/04/26 07:28:32;;;;;;;14.73;7.10;;;8.10;99.90;;;;;;4989054;28;20322;-86
2023/04/26 07:30:59;;;;;;;13.17;7.57;;;8.20;99.90;;;;;;4988248;28;20041;-85
2023/04/26 07:33:24;;;;;;;12.23;6.90;;;8.30;99.90;;;;;;4990141;28;20129;-84
2023/04/26 07:35:57;;;;;;;10.27;6.70;;;8.30;99.90;;;;;;4990734;28;20744;-85
2023/04/26 07:38:24;;;;;;;13.13;6.83;;;8.30;99.90;;;;;;4989465;28;20037;-85
2023/04/26 07:40:50;;;;;;;15.53;8.30;;;8.20;99.90;;;;;;4990680;28;20034;-84
2023/04/26 07:43:16;;;;;;;13.47;7.83;;;8.20;99.90;;;;;;4991319;28;20076;-85
2023/04/26 07:45:42;;;;;;;12.60;7.90;;;8.00;99.90;;;;;;4991828;28;20026;-85
2023/04/26 07:48:08;;;;;;;20.50;7.97;;;8.10;99.90;;;;;;4990935;28;20076;-85
2023/04/26 07:50:33;;;;;;;12.80;7.57;;;8.20;99.90;;;;;;4989432;28;20157;-84
2023/04/26 07:52:59;;;;;;;13.97;8.13;;;8.40;99.90;;;;;;4990381;28;20040;-85
2023/04/26 07:55:25;;;;;;;14.60;7.97;;;8.50;99.90;;;;;;4988319;28;20025;-85
2023/04/26 07:57:50;;;;;;;13.07;7.67;;;8.40;99.90;;;;;;4989114;28;20522;-84
2023/04/26 08:00:17;;;;;;;15.57;7.80;;;8.30;99.90;;;;;;4987432;28;20041;-85
2023/04/26 08:02:45;;;;;;;13.40;7.47;;;8.30;99.90;;;;;;4987765;28;20049;-84
2023/04/26 08:05:11;;;;;;;15.23;8.07;;;8.40;99.90;;;;;;4986756;28;20042;-85
2023/04/26 08:07:36;;;;;;;14.27;7.80;;;8.60;99.90;;;;;;4987323;28;20041;-85
2023/04/26 08:10:02;;;;;;;12.37;7.60;;;8.60;99.90;;;;;;4991652;28;20034;-86
2023/04/26 08:12:28;;;;;;;11.00;6.87;;;8.50;99.90;;;;;;4995197;28;20046;-84
2023/04/26 08:14:53;;;;;;;13.40;6.93;;;8.60;99.90;;;;;;4989303;28;20044;-87
2023/04/26 08:17:19;;;;;;;16.60;7.13;;;8.60;99.90;;;;;;4991159;28;20019;-85
2023/04/26 08:19:44;;;;;;;14.03;7.47;;;8.60;99.90;;;;;;4989459;28;20414;-84
2023/04/26 08:22:10;;;;;;;12.70;7.17;;;8.60;99.90;;;;;;4989211;28;20026;-85
2023/04/26 08:24:35;;;;;;;14.77;7.23;;;8.60;99.90;;;;;;4991963;28;20018;-85
2023/04/26 08:27:01;;;;;;;17.23;6.67;;;8.80;99.90;;;;;;4993319;28;20129;-85
2023/04/26 08:29:27;;;;;;;10.67;6.77;;;8.90;99.90;;;;;;4992329;28;20145;-84
2023/04/26 08:31:53;;;;;;;12.53;6.50;;;9.00;99.90;;;;;;4993279;28;20097;-84
2023/04/26 08:34:19;;;;;;;17.90;6.97;;;9.10;99.90;;;;;;4991645;28;20490;-84
2023/04/26 08:36:44;;;;;;;10.53;5.23;;;9.30;99.90;;;;;;4996851;28;20133;-89
2023/04/26 08:39:13;;;;;;;12.77;5.80;;;9.50;99.90;;;;;;4991451;28;20109;-85
2023/04/26 08:41:44;;;;;;;11.43;6.20;;;9.70;99.90;;;;;;4990858;28;20117;-87
2023/04/26 08:44:10;;;;;;;10.60;5.33;;;9.80;99.90;;;;;;4988149;28;20025;-87
2023/04/26 08:46:55;;;;;;;11.53;5.30;;;9.80;99.90;;;;;;4991116;28;20031;-84
2023/04/26 08:49:49;;;;;;;14.38;5.78;;;9.90;99.90;;;;;;4992942;28;20027;-87
2023/04/26 08:52:15;;;;;;;11.57;5.13;;;9.90;99.90;;;;;;4992076;28;20053;-84
2023/04/26 08:54:41;;;;;;;11.27;5.10;;;9.80;99.90;;;;;;4990814;28;20038;-84
2023/04/26 08:57:08;;;;;;;11.47;5.43;;;9.80;99.90;;;;;;4991188;28;20026;-84
2023/04/26 08:59:37;;;;;;;10.03;4.70;;;9.90;99.90;;;;;;4990678;28;20533;-84
2023/04/26 09:02:08;;;;;;;8.43;4.80;;;9.90;99.90;;;;;;4992964;28;20037;-84
2023/04/26 09:04:34;;;;;;;11.77;4.60;;;9.80;99.90;;;;;;4991316;28;20499;-85
2023/04/26 09:07:02;;;;;;;10.10;4.10;;;9.90;99.90;;;;;;4990726;28;20061;-86
2023/04/26 09:09:37;;;;;;;10.57;5.20;;;9.90;99.90;;;;;;4991400;28;20088;-85
2023/04/26 09:12:03;;;;;;;8.25;3.80;;;9.80;99.90;;;;;;4991545;28;20734;-86
2023/04/26 09:14:29;;;;;;;8.43;4.87;;;9.80;99.90;;;;;;4990054;28;20026;-85
2023/04/26 09:16:55;;;;;;;8.83;4.00;;;9.90;99.90;;;;;;4991359;28;20034;-84
2023/04/26 09:19:43;;;;;;;10.73;4.53;;;9.90;99.90;;;;;;4989807;28;20038;-85
2023/04/26 09:22:09;;;;;;;7.50;4.00;;;9.90;99.90;;;;;;4991676;28;20042;-85
2023/04/26 09:24:53;;;;;;;11.13;3.97;;;10.00;99.90;;;;;;4991365;28;20022;-86
2023/04/26 09:27:19;;;;;;;10.70;3.70;;;10.00;99.90;;;;;;4989385;28;20427;-86
2023/04/26 09:30:08;;;;;;;8.70;3.77;;;10.20;99.90;;;;;;4991150;28;20423;-85
2023/04/26 09:32:44;;;;;;;10.05;4.28;;;10.60;99.90;;;;;;4989243;28;20045;-84
2023/04/26 09:35:28;;;;;;;9.00;3.73;;;11.10;99.90;;;;;;4991992;28;20042;-85
2023/04/26 09:38:03;;;;;;;8.23;3.60;;;11.10;99.90;;;;;;4992505;28;20042;-83
2023/04/26 09:40:31;;;;;;;8.33;4.40;;;11.20;99.90;;;;;;4992247;28;20177;-84
2023/04/26 09:43:00;;;;;;;7.70;4.32;;;11.40;99.90;;;;;;4991537;28;20483;-85
2023/04/26 09:45:27;;;;;;;7.05;4.00;;;11.50;99.90;;;;;;4992621;28;20706;-86
2023/04/26 09:47:54;;;;;;;9.73;4.07;;;11.70;99.90;;;;;;4994020;28;20031;-85
2023/04/26 09:50:29;;;;;;;10.35;4.00;;;11.80;99.90;;;;;;4992306;28;20054;-85
2023/04/26 09:52:55;;;;;;;6.90;3.95;;;12.30;99.90;;;;;;4993465;28;21133;-85
2023/04/26 09:55:28;;;;;;;9.82;3.80;;;12.60;99.90;;;;;;4991409;28;20129;-86
2023/04/26 09:57:59;;;;;;;9.13;4.85;;;12.90;99.90;;;;;;4993263;28;20022;-86
2023/04/26 10:00:26;;;;;;;7.90;3.90;;;13.00;99.90;;;;;;4993785;28;20038;-87
2023/04/26 10:02:54;;;;;;;8.32;3.70;;;12.90;99.90;;;;;;4993103;28;20034;-86
2023/04/26 10:05:20;;;;;;;11.10;4.68;;;12.90;99.90;;;;;;4994963;28;20026;-84
2023/04/26 10:07:46;;;;;;;11.63;4.78;;;12.60;99.90;;;;;;4993621;28;20030;-86
2023/04/26 10:10:12;;;;;;;9.55;4.25;;;12.30;99.90;;;;;;4993302;28;20073;-87
2023/04/26 10:12:41;;;;;;;9.18;4.10;;;12.10;99.90;;;;;;4994035;28;20085;-84
2023/04/26 10:15:09;;;;;;;7.82;3.40;;;11.70;99.90;;;;;;4994815;28;20038;-85
2023/04/26 10:17:36;;;;;;;8.75;4.13;;;11.40;99.90;;;;;;4994689;28;20034;-86
2023/04/26 10:20:04;;;;;;;11.52;4.55;;;11.20;99.90;;;;;;4993168;28;20046;-84
2023/04/26 10:22:35;;;;;;;9.77;3.92;;;11.00;99.90;;;;;;4995172;28;20025;-85
2023/04/26 10:25:01;;;;;;;9.18;3.78;;;10.90;99.90;;;;;;4995570;28;20033;-86
2023/04/26 10:27:42;;;;;;;8.75;3.13;;;10.90;99.90;;;;;;4995881;28;20031;-85
2023/04/26 10:30:15;;;;;;;9.70;3.47;;;11.20;99.90;;;;;;4990678;28;20117;-85
2023/04/26 10:32:56;;;;;;;7.20;3.08;;;11.30;99.90;;;;;;4990641;28;20073;-85
2023/04/26 10:35:22;;;;;;;5.57;2.92;;;11.70;99.90;;;;;;4991608;28;20583;-86
2023/04/26 10:38:00;;;;;;;5.40;3.10;;;12.00;99.90;;;;;;4992116;28;20079;-85
2023/04/26 10:40:30;;;;;;;5.80;3.20;;;12.40;99.90;;;;;;4993940;28;20061;-86
2023/04/26 10:43:08;;;;;;;9.30;3.15;;;12.60;99.90;;;;;;4994376;28;20030;-85
2023/04/26 10:45:34;;;;;;;5.38;3.33;;;13.00;99.90;;;;;;4995017;28;20014;-85
2023/04/26 10:48:13;;;;;;;5.03;2.90;;;13.40;99.90;;;;;;4992353;28;20033;-86
2023/04/26 10:51:00;;;;;;;9.93;2.90;;;13.60;99.90;;;;;;4991740;28;20034;-86
2023/04/26 10:53:30;;;;;;;4.68;2.85;;;14.00;99.90;;;;;;4993812;28;20040;-86
2023/04/26 10:55:56;;;;;;;6.75;3.33;;;13.90;99.90;;;;;;4994060;28;20045;-86
2023/04/26 10:58:29;;;;;;;6.53;3.28;;;13.70;99.90;;;;;;4991935;28;20073;-86
2023/04/26 11:01:12;;;;;;;7.50;3.63;;;13.20;99.90;;;;;;4992630;28;20561;-87
2023/04/26 11:03:39;;;;;;;6.53;3.13;;;13.00;99.90;;;;;;4992900;28;20042;-85
2023/04/26 11:06:12;;;;;;;8.05;3.22;;;12.70;99.90;;;;;;4992190;28;20037;-85
2023/04/26 11:08:38;;;;;;;10.02;3.90;;;12.40;99.90;;;;;;4993711;28;20391;-84
2023/04/26 11:11:03;;;;;;;9.10;3.33;;;12.20;99.90;;;;;;4993981;28;20034;-85
2023/04/26 11:13:47;;;;;;;7.60;3.55;;;12.10;99.90;;;;;;4993919;28;20819;-85
2023/04/26 11:16:14;;;;;;;8.25;3.40;;;12.00;99.90;;;;;;4993553;28;20030;-85
2023/04/26 11:18:42;;;;;;;10.85;3.65;;;12.10;99.90;;;;;;4991963;28;20030;-85
2023/04/26 11:21:08;;;;;;;5.47;3.08;;;12.10;99.90;;;;;;4992569;28;20048;-87
2023/04/26 11:23:35;;;;;;;8.18;3.53;;;12.50;99.90;;;;;;4991665;28;20483;-86
2023/04/26 11:26:02;;;;;;;8.18;4.03;;;12.80;99.90;;;;;;4990792;28;20025;-85
2023/04/26 11:28:30;;;;;;;5.80;3.28;;;12.90;99.90;;;;;;4990538;28;20946;-86
2023/04/26 11:30:56;;;;;;;6.47;2.80;;;12.80;99.90;;;;;;4991411;28;20935;-86
2023/04/26 11:33:22;;;;;;;5.28;2.75;;;13.00;99.90;;;;;;4990501;28;20177;-85
2023/04/26 11:35:48;;;;;;;8.10;3.10;;;13.30;99.90;;;;;;4991006;28;20034;-85
2023/04/26 11:38:14;;;;;;;5.55;2.85;;;13.60;99.90;;;;;;4990313;28;20049;-85
2023/04/26 11:40:40;;;;;;;7.20;4.15;;;13.90;99.90;;;;;;4990869;28;20025;-85
2023/04/26 11:43:07;;;;;;;9.10;3.65;;;13.90;99.90;;;;;;4990303;28;20109;-85
2023/04/26 11:45:35;;;;;;;5.47;3.70;;;13.80;99.90;;;;;;4989241;28;20561;-86
2023/04/26 11:48:06;;;;;;;5.95;4.18;;;13.60;99.90;;;;;;4990402;28;20117;-85
2023/04/26 11:50:34;;;;;;;6.88;3.80;;;13.20;99.90;;;;;;4988151;28;21009;-85
2023/04/26 11:53:03;;;;;;;11.07;4.20;;;12.90;99.90;;;;;;4988141;28;20050;-85
2023/04/26 11:55:33;;;;;;;6.97;3.75;;;12.70;99.90;;;;;;4993192;28;20033;-85
2023/04/26 11:58:00;;;;;;;5.82;3.92;;;12.70;99.90;;;;;;4993235;28;20034;-86
2023/04/26 12:00:26;;;;;;;7.82;4.20;;;12.70;99.90;;;;;;4994324;28;20034;-85
2023/04/26 12:02:52;;;;;;;7.47;3.90;;;12.80;99.90;;;;;;4994955;28;20418;-87
2023/04/26 12:05:26;;;;;;;9.00;4.47;;;13.00;99.90;;;;;;4996163;28;20035;-85
2023/04/26 12:07:57;;;;;;;9.43;4.43;;;13.00;99.90;;;;;;4996471;28;20190;-85
2023/04/26 12:10:25;;;;;;;8.35;4.00;;;12.70;99.90;;;;;;4993759;28;20030;-85
2023/04/26 12:12:51;;;;;;;6.30;3.90;;;12.50;99.90;;;;;;4994807;28;20136;-85
2023/04/26 12:15:18;;;;;;;7.65;4.60;;;12.30;99.90;;;;;;4996723;28;20034;-85
2023/04/26 12:18:07;;;;;;;10.02;4.32;;;12.20;99.90;;;;;;4994729;28;20048;-86
2023/04/26 12:20:38;;;;;;;12.20;4.50;;;12.20;99.90;;;;;;4994500;28;20394;-86
2023/04/26 12:23:14;;;;;;;7.70;3.58;;;12.10;99.90;;;;;;4995674;28;20109;-84
2023/04/26 12:25:50;;;;;;;7.07;3.75;;;12.00;99.90;;;;;;4997232;28;20494;-84
2023/04/26 12:28:16;;;;;;;9.52;3.40;;;11.80;99.90;;;;;;4995101;28;20037;-84
2023/04/26 12:30:41;;;;;;;8.10;3.78;;;11.70;99.90;;;;;;4991985;28;20042;-86
2023/04/26 12:33:07;;;;;;;9.75;4.15;;;11.80;99.90;;;;;;4992655;28;20748;-84
2023/04/26 12:35:33;;;;;;;5.65;4.00;;;11.80;99.90;;;;;;4992763;28;20390;-84
2023/04/26 12:38:00;;;;;;;8.23;3.97;;;11.90;99.90;;;;;;4991832;28;20050;-83
2023/04/26 12:40:26;;;;;;;7.43;3.60;;;11.90;99.90;;;;;;4991504;28;20022;-84
2023/04/26 12:42:54;;;;;;;6.38;3.20;;;12.10;99.90;;;;;;4990212;28;20034;-84